Sao Francisco de Paula, Brazil
Current Conditions -  °F | °C
As of 2:00 PM on Thursday 25 Dec 2014 (Local Time) from SBPR Reporting Station
Scattered Clouds Scattered Clouds  
Wind Chill: 88°   Ceiling: Unl
Heat Index: 88°   Visibility: 6mi
Dew Point: 63°   Wind: 8mph
Humidity: 43%   Direction: 120°ESE
Pressure: 30.15"   Gusts: NA
Location:  20.71°S, 44.99°W
Report Text: SBPR 251600Z 12007KT 9999 SCT025 31/17 Q1021
Loading
Personal Weather Stations






























Interactive Weather Map New forecast layout! Learn more

10-Day Weather Forecast

Advertisements
Track Severe Weather on mobile